PWSweather.com
Personal Weather Stations
Station Observations
KWABLAIN13
Ptl Weather, Blaine, WA

Ptl WeatherBlaine, WA

Lat: 48.997393, Lon: -122.748614

Elevation: 57

Station Type: Davis Advantage Pro 2

http://www.ptlnet.net

Latest ConditionsUpdated 5:49:57 AM PDT Friday, May 26, 2017
Currently Today's Max Today's Min Today's Average
Temperature 47.1°F8.4°C 53.1°F11.7°C 47.1°F8.4°C 49.8°F9.9°C
Dew Point 45.5°F7.5°C 49.3°F9.6°C 45.4°F7.4°C 47.2°F8.4°C
Winds Calm Calm 4.0 mph ENE6.4 kmh ENE - 0.3 mph 0.5 kmh
Wind Gusts -- 4.0 mph6.4 kmh - -
Humidity 94% 94% 87% 91%
Pressure 29.93 in1013.5 mb 29.93 in1013.5 mb 29.86 in1011.2 mb -
Hour Temp Dew Point Humidity Winds Wind Gusts Pressure Precip Precip Rate Daily Precip Total
05:49 AM 47.1°F8.4°C 45.5°F7.5°C 94% Calm Calm -- 29.93 in1013.5 mb 0.00 in0.0 mm 0.00 in0.0 mm 0.00 in0.0 mm
05:45 AM 47.1°F8.4°C 45.5°F7.5°C 94% Calm Calm -- 29.93 in1013.5 mb 0.00 in0.0 mm 0.00 in0.0 mm 0.00 in0.0 mm
05:30 AM 47.2°F8.4°C 45.6°F7.6°C 94% Calm Calm -- 29.93 in1013.5 mb 0.00 in0.0 mm 0.00 in0.0 mm 0.00 in0.0 mm
05:25 AM 47.2°F8.4°C 45.6°F7.6°C 94% Calm Calm -- 29.92 in1013.2 mb 0.00 in0.0 mm 0.00 in0.0 mm 0.00 in0.0 mm
05:10 AM 47.3°F8.5°C 45.7°F7.6°C 94% Calm Calm -- 29.92 in1013.2 mb 0.00 in0.0 mm 0.00 in0.0 mm 0.00 in0.0 mm
05:05 AM 47.3°F8.5°C 45.4°F7.4°C 93% Calm Calm -- 29.92 in1013.2 mb 0.00 in0.0 mm 0.00 in0.0 mm 0.00 in0.0 mm
04:50 AM 47.6°F8.7°C 45.7°F7.6°C 93% Calm Calm -- 29.92 in1013.2 mb 0.00 in0.0 mm 0.00 in0.0 mm 0.00 in0.0 mm
04:45 AM 47.6°F8.7°C 45.7°F7.6°C 93% Calm Calm -- 29.91 in1012.9 mb 0.00 in0.0 mm 0.00 in0.0 mm 0.00 in0.0 mm
04:30 AM 48.0°F8.9°C 46.1°F7.8°C 93% Calm Calm -- 29.91 in1012.9 mb 0.00 in0.0 mm 0.00 in0.0 mm 0.00 in0.0 mm
04:24 AM 48.1°F8.9°C 46.2°F7.9°C 93% Calm Calm -- 29.91 in1012.9 mb 0.00 in0.0 mm 0.00 in0.0 mm 0.00 in0.0 mm
04:10 AM 48.5°F9.2°C 46.3°F7.9°C 92% Calm Calm -- 29.91 in1012.9 mb 0.00 in0.0 mm 0.00 in0.0 mm 0.00 in0.0 mm
04:05 AM 48.5°F9.2°C 46.3°F7.9°C 92% Calm Calm -- 29.91 in1012.9 mb 0.00 in0.0 mm 0.00 in0.0 mm 0.00 in0.0 mm
03:50 AM 48.6°F9.2°C 46.4°F8.0°C 92% Calm Calm -- 29.91 in1012.9 mb 0.00 in0.0 mm 0.00 in0.0 mm 0.00 in0.0 mm
03:45 AM 48.6°F9.2°C 46.4°F8.0°C 92% Calm Calm -- 29.91 in1012.9 mb 0.00 in0.0 mm 0.00 in0.0 mm 0.00 in0.0 mm
03:30 AM 49.0°F9.4°C 46.8°F8.2°C 92% Calm Calm -- 29.90 in1012.5 mb 0.00 in0.0 mm 0.00 in0.0 mm 0.00 in0.0 mm
03:25 AM 49.1°F9.5°C 46.9°F8.3°C 92% Calm Calm -- 29.90 in1012.5 mb 0.00 in0.0 mm 0.00 in0.0 mm 0.00 in0.0 mm
03:10 AM 49.2°F9.6°C 47.0°F8.3°C 92% 1.0 mph ENE1.6 kmh ENE 2.0 mph3.2 kmh 29.90 in1012.5 mb 0.00 in0.0 mm 0.00 in0.0 mm 0.00 in0.0 mm
03:05 AM 49.3°F9.6°C 46.8°F8.2°C 91% Calm Calm 1.0 mph1.6 kmh 29.90 in1012.5 mb 0.00 in0.0 mm 0.00 in0.0 mm 0.00 in0.0 mm
02:50 AM 49.5°F9.7°C 47.0°F8.3°C 91% Calm Calm 2.0 mph3.2 kmh 29.89 in1012.2 mb 0.00 in0.0 mm 0.00 in0.0 mm 0.00 in0.0 mm
02:45 AM 49.6°F9.8°C 47.1°F8.4°C 91% Calm Calm 2.0 mph3.2 kmh 29.89 in1012.2 mb 0.00 in0.0 mm 0.00 in0.0 mm 0.00 in0.0 mm
02:30 AM 50.0°F10.0°C 47.2°F8.4°C 90% Calm Calm 1.0 mph1.6 kmh 29.89 in1012.2 mb 0.00 in0.0 mm 0.00 in0.0 mm 0.00 in0.0 mm
02:24 AM 50.1°F10.1°C 47.3°F8.5°C 90% Calm Calm 1.0 mph1.6 kmh 29.89 in1012.2 mb 0.00 in0.0 mm 0.00 in0.0 mm 0.00 in0.0 mm
02:10 AM 50.6°F10.3°C 47.5°F8.6°C 89% Calm Calm 1.0 mph1.6 kmh 29.89 in1012.2 mb 0.00 in0.0 mm 0.00 in0.0 mm 0.00 in0.0 mm
02:05 AM 50.8°F10.4°C 47.4°F8.6°C 88% Calm Calm 1.0 mph1.6 kmh 29.89 in1012.2 mb 0.00 in0.0 mm 0.00 in0.0 mm 0.00 in0.0 mm
01:50 AM 51.4°F10.8°C 48.3°F9.1°C 89% Calm Calm -- 29.89 in1012.2 mb 0.00 in0.0 mm 0.00 in0.0 mm 0.00 in0.0 mm
01:45 AM 51.5°F10.8°C 48.1°F8.9°C 88% Calm Calm -- 29.89 in1012.2 mb 0.00 in0.0 mm 0.00 in0.0 mm 0.00 in0.0 mm
01:30 AM 52.1°F11.2°C 48.7°F9.3°C 88% Calm Calm 2.0 mph3.2 kmh 29.88 in1011.9 mb 0.00 in0.0 mm 0.00 in0.0 mm 0.00 in0.0 mm
01:24 AM 52.2°F11.2°C 48.8°F9.3°C 88% 1.0 mph ENE1.6 kmh ENE 2.0 mph3.2 kmh 29.88 in1011.9 mb 0.00 in0.0 mm 0.00 in0.0 mm 0.00 in0.0 mm
01:10 AM 52.4°F11.3°C 49.0°F9.4°C 88% 2.0 mph NE3.2 kmh NE 4.0 mph6.4 kmh 29.87 in1011.5 mb 0.00 in0.0 mm 0.00 in0.0 mm 0.00 in0.0 mm
01:05 AM 52.4°F11.3°C 49.0°F9.4°C 88% 1.0 mph NE1.6 kmh NE 4.0 mph6.4 kmh 29.87 in1011.5 mb 0.00 in0.0 mm 0.00 in0.0 mm 0.00 in0.0 mm
12:49 AM 52.4°F11.3°C 49.0°F9.4°C 88% 4.0 mph ENE6.4 kmh ENE 4.0 mph6.4 kmh 29.87 in1011.5 mb 0.00 in0.0 mm 0.00 in0.0 mm 0.00 in0.0 mm
12:45 AM 52.4°F11.3°C 49.0°F9.4°C 88% Calm Calm 2.0 mph3.2 kmh 29.87 in1011.5 mb 0.00 in0.0 mm 0.00 in0.0 mm 0.00 in0.0 mm
12:30 AM 52.4°F11.3°C 49.0°F9.4°C 88% Calm Calm 1.0 mph1.6 kmh 29.87 in1011.5 mb 0.00 in0.0 mm 0.00 in0.0 mm 0.00 in0.0 mm
12:25 AM 52.5°F11.4°C 49.1°F9.5°C 88% Calm Calm -- 29.87 in1011.5 mb 0.00 in0.0 mm 0.00 in0.0 mm 0.00 in0.0 mm
12:09 AM 53.0°F11.7°C 49.2°F9.6°C 87% Calm Calm 2.0 mph3.2 kmh 29.86 in1011.2 mb 0.00 in0.0 mm 0.00 in0.0 mm 0.00 in0.0 mm
12:05 AM 53.1°F11.7°C 49.3°F9.6°C 87% Calm Calm -- 29.86 in1011.2 mb 0.00 in0.0 mm 0.00 in0.0 mm 0.00 in0.0 mm